Time;durP1;ratioP1;P1;durP2;ratioP2;P2;SDS_P1;SDS_P2;PMS_P1;PMS_P2;Temp;Humidity;BMP_temperature;BMP_pressure;BME280_temperature;BME280_humidity;BME280_pressure;Samples;Min_cycle;Max_cycle;Signal;HPM_P1;HPM_P2
2021/09/11 00:01:27;;;;;;;12.75;9.75;;;;;;;;;;4983724;28;20218;-74
2021/09/11 00:03:52;;;;;;;16.73;8.50;;;;;;;;;;4973940;28;20290;-74
2021/09/11 00:06:17;;;;;;;12.80;8.32;;;;;;;;;;4975647;28;20187;-74
2021/09/11 00:08:43;;;;;;;12.87;8.77;;;;;;;;;;4964418;28;20192;-73
2021/09/11 00:11:08;;;;;;;13.53;8.27;;;;;;;;;;4982510;28;20479;-73
2021/09/11 00:13:33;;;;;;;15.68;8.82;;;;;;;;;;4979702;28;20503;-75
2021/09/11 00:15:58;;;;;;;14.10;8.83;;;;;;;;;;4980611;28;20227;-73
2021/09/11 00:18:23;;;;;;;12.88;8.45;;;;;;;;;;4977890;28;20966;-75
2021/09/11 00:20:48;;;;;;;18.45;10.20;;;;;;;;;;4992211;23;20220;-71
2021/09/11 00:23:15;;;;;;;12.82;8.85;;;;;;;;;;5003817;28;20725;-72
2021/09/11 00:25:40;;;;;;;12.50;7.57;;;;;;;;;;5021474;28;20186;-72
2021/09/11 00:28:05;;;;;;;15.02;8.73;;;;;;;;;;5023688;28;20189;-72
2021/09/11 00:30:30;;;;;;;16.52;10.05;;;;;;;;;;5020496;28;20171;-72
2021/09/11 00:32:56;;;;;;;12.88;9.05;;;;;;;;;;4999160;28;20630;-73
2021/09/11 00:35:21;;;;;;;16.33;10.37;;;;;;;;;;5012700;28;20271;-72
2021/09/11 00:37:46;;;;;;;13.75;9.35;;;;;;;;;;5007223;28;20428;-72
2021/09/11 00:40:13;;;;;;;15.32;10.60;;;;;;;;;;5006772;28;20900;-73
2021/09/11 00:42:45;;;;;;;14.88;10.13;;;;;;;;;;5015234;28;20214;-72
2021/09/11 00:45:10;;;;;;;16.15;11.27;;;;;;;;;;5009529;28;20254;-73
2021/09/11 00:47:36;;;;;;;18.75;12.73;;;;;;;;;;4999156;28;20274;-73
2021/09/11 00:50:01;;;;;;;19.30;12.17;;;;;;;;;;4998894;28;20641;-73
2021/09/11 00:52:27;;;;;;;18.15;13.15;;;;;;;;;;4999240;28;20578;-73
2021/09/11 00:54:52;;;;;;;24.13;15.57;;;;;;;;;;4989502;28;20249;-72
2021/09/11 00:57:18;;;;;;;19.30;14.65;;;;;;;;;;4984295;28;20938;-73
2021/09/11 00:59:43;;;;;;;20.52;14.93;;;;;;;;;;4988278;28;20186;-72
2021/09/11 01:02:08;;;;;;;23.23;15.30;;;;;;;;;;5009574;28;20586;-71
2021/09/11 01:04:33;;;;;;;19.23;15.00;;;;;;;;;;5011166;28;20462;-72
2021/09/11 01:06:59;;;;;;;20.00;15.50;;;;;;;;;;5009487;28;20278;-72
2021/09/11 01:09:24;;;;;;;21.58;14.90;;;;;;;;;;4988690;28;20607;-72
2021/09/11 01:11:52;;;;;;;19.33;13.70;;;;;;;;;;5002860;28;20266;-72
2021/09/11 01:14:17;;;;;;;20.80;13.85;;;;;;;;;;5007210;28;20194;-73
2021/09/11 01:16:43;;;;;;;21.55;14.95;;;;;;;;;;5018356;28;20182;-72
2021/09/11 01:19:08;;;;;;;24.55;14.95;;;;;;;;;;5010972;28;20216;-72
2021/09/11 01:21:33;;;;;;;23.03;14.60;;;;;;;;;;5014978;28;20222;-73
2021/09/11 01:23:58;;;;;;;24.17;14.40;;;;;;;;;;4987665;28;20782;-72
2021/09/11 01:26:24;;;;;;;21.77;13.07;;;;;;;;;;4965270;28;20195;-72
2021/09/11 01:28:49;;;;;;;19.20;13.23;;;;;;;;;;4983076;28;20442;-72
2021/09/11 01:31:14;;;;;;;18.80;12.35;;;;;;;;;;5011366;28;20511;-72
2021/09/11 01:33:39;;;;;;;21.23;13.33;;;;;;;;;;5014171;28;20598;-72
2021/09/11 01:36:04;;;;;;;18.13;12.13;;;;;;;;;;5011703;28;20530;-72
2021/09/11 01:38:30;;;;;;;17.15;11.35;;;;;;;;;;4993800;28;20853;-72
2021/09/11 01:40:55;;;;;;;18.20;12.68;;;;;;;;;;5012918;28;20387;-73
2021/09/11 01:43:28;;;;;;;17.42;11.48;;;;;;;;;;5009374;28;20198;-72
2021/09/11 01:45:53;;;;;;;19.88;11.27;;;;;;;;;;5012383;28;20225;-72
2021/09/11 01:48:18;;;;;;;18.60;11.38;;;;;;;;;;4993780;28;20183;-71
2021/09/11 01:50:43;;;;;;;20.47;10.60;;;;;;;;;;5013558;28;20183;-71
2021/09/11 01:53:08;;;;;;;14.77;10.47;;;;;;;;;;5009185;28;20459;-72
2021/09/11 01:55:33;;;;;;;16.70;10.18;;;;;;;;;;5011462;28;20424;-71
2021/09/11 01:57:59;;;;;;;14.68;10.25;;;;;;;;;;5018754;28;20671;-72
2021/09/11 02:00:24;;;;;;;14.20;10.05;;;;;;;;;;5014645;28;20194;-72
2021/09/11 02:02:49;;;;;;;13.63;10.45;;;;;;;;;;5009539;28;20207;-71
2021/09/11 02:05:15;;;;;;;16.30;10.02;;;;;;;;;;5009972;28;20187;-71
2021/09/11 02:07:40;;;;;;;15.63;10.88;;;;;;;;;;5010736;28;20190;-71
2021/09/11 02:10:06;;;;;;;16.10;10.63;;;;;;;;;;5008955;28;20624;-72
2021/09/11 02:12:31;;;;;;;16.58;10.55;;;;;;;;;;5011433;28;20190;-71
2021/09/11 02:14:57;;;;;;;17.00;10.75;;;;;;;;;;4999007;28;20181;-71
2021/09/11 02:17:22;;;;;;;12.48;10.82;;;;;;;;;;5020893;28;20584;-72
2021/09/11 02:19:47;;;;;;;19.03;11.63;;;;;;;;;;5002274;28;20352;-71
2021/09/11 02:22:13;;;;;;;16.85;11.70;;;;;;;;;;5010267;28;20471;-71
2021/09/11 02:24:38;;;;;;;18.65;11.45;;;;;;;;;;5011532;28;20311;-71
2021/09/11 02:27:04;;;;;;;14.45;11.50;;;;;;;;;;5011346;28;20258;-71
2021/09/11 02:29:29;;;;;;;18.90;12.27;;;;;;;;;;5017795;28;20261;-71
2021/09/11 02:31:54;;;;;;;22.40;13.15;;;;;;;;;;5015210;28;20203;-71
2021/09/11 02:34:19;;;;;;;22.00;13.27;;;;;;;;;;5006234;28;20179;-71
2021/09/11 02:36:44;;;;;;;17.98;13.07;;;;;;;;;;5011250;28;20443;-72
2021/09/11 02:39:10;;;;;;;19.48;12.77;;;;;;;;;;5017754;28;20191;-71
2021/09/11 02:41:35;;;;;;;24.10;13.52;;;;;;;;;;5013661;28;20296;-72
2021/09/11 02:44:00;;;;;;;17.38;13.02;;;;;;;;;;5011138;28;20214;-71
2021/09/11 02:46:26;;;;;;;22.33;13.63;;;;;;;;;;5016799;28;20266;-72
2021/09/11 02:48:51;;;;;;;21.70;14.18;;;;;;;;;;5011462;28;20171;-71
2021/09/11 02:51:16;;;;;;;22.17;14.37;;;;;;;;;;5011532;28;20210;-71
2021/09/11 02:53:42;;;;;;;20.77;14.52;;;;;;;;;;5007296;28;20471;-71
2021/09/11 02:56:07;;;;;;;21.77;14.93;;;;;;;;;;5008078;28;20190;-72
2021/09/11 02:58:32;;;;;;;24.10;15.25;;;;;;;;;;5013931;28;20620;-72
2021/09/11 03:00:57;;;;;;;22.58;14.18;;;;;;;;;;5009814;28;20190;-71
2021/09/11 03:03:23;;;;;;;21.63;15.25;;;;;;;;;;5017323;28;20774;-71
2021/09/11 03:05:48;;;;;;;19.30;14.98;;;;;;;;;;5013457;28;20182;-70
2021/09/11 03:08:14;;;;;;;22.98;15.68;;;;;;;;;;5010699;28;20175;-71
2021/09/11 03:10:39;;;;;;;22.23;16.48;;;;;;;;;;5006685;28;20171;-71
2021/09/11 03:13:06;;;;;;;21.77;15.27;;;;;;;;;;5010431;28;20285;-71
2021/09/11 03:15:31;;;;;;;23.33;15.57;;;;;;;;;;5007710;28;20424;-71
2021/09/11 03:17:56;;;;;;;24.33;16.45;;;;;;;;;;5012912;28;20718;-71
2021/09/11 03:20:21;;;;;;;23.10;16.02;;;;;;;;;;5002827;28;20657;-71
2021/09/11 03:22:46;;;;;;;23.75;17.20;;;;;;;;;;5002221;28;20238;-71
2021/09/11 03:25:12;;;;;;;22.87;16.37;;;;;;;;;;4988401;28;20175;-71
2021/09/11 03:27:37;;;;;;;28.10;16.00;;;;;;;;;;5007737;28;20528;-71
2021/09/11 03:30:02;;;;;;;21.25;16.00;;;;;;;;;;5007876;28;20300;-71
2021/09/11 03:32:28;;;;;;;23.52;16.23;;;;;;;;;;5004740;28;20206;-71
2021/09/11 03:34:53;;;;;;;25.87;17.60;;;;;;;;;;5007593;28;20245;-71
2021/09/11 03:37:18;;;;;;;27.90;16.37;;;;;;;;;;5008215;28;20428;-72
2021/09/11 03:39:43;;;;;;;25.38;17.58;;;;;;;;;;5006583;28;20455;-71
2021/09/11 03:42:08;;;;;;;28.20;18.38;;;;;;;;;;5007127;28;20309;-71
2021/09/11 03:44:33;;;;;;;23.07;17.03;;;;;;;;;;5010121;28;20194;-71
2021/09/11 03:46:59;;;;;;;22.15;16.73;;;;;;;;;;5008765;28;20416;-70
2021/09/11 03:49:24;;;;;;;23.37;16.10;;;;;;;;;;5008838;28;20171;-71
2021/09/11 03:51:49;;;;;;;27.15;17.85;;;;;;;;;;5009580;28;20821;-71
2021/09/11 03:54:14;;;;;;;25.15;17.15;;;;;;;;;;5009481;28;20713;-71
2021/09/11 03:56:39;;;;;;;21.92;16.33;;;;;;;;;;5004971;28;20191;-71
2021/09/11 03:59:05;;;;;;;24.15;16.13;;;;;;;;;;5009470;28;20193;-71
2021/09/11 04:01:30;;;;;;;23.88;17.00;;;;;;;;;;5008571;28;20245;-71
2021/09/11 04:03:55;;;;;;;25.15;15.77;;;;;;;;;;5011123;28;20190;-70
2021/09/11 04:06:20;;;;;;;23.70;15.97;;;;;;;;;;5010671;28;20221;-71
2021/09/11 04:08:46;;;;;;;26.63;17.95;;;;;;;;;;4998701;28;20937;-71
2021/09/11 04:11:11;;;;;;;26.07;17.43;;;;;;;;;;4994976;28;20198;-71
2021/09/11 04:13:36;;;;;;;23.13;16.70;;;;;;;;;;5010550;28;20792;-71
2021/09/11 04:16:01;;;;;;;25.52;16.52;;;;;;;;;;4992110;28;20458;-71
2021/09/11 04:18:26;;;;;;;22.35;17.08;;;;;;;;;;5017173;28;20285;-71
2021/09/11 04:20:52;;;;;;;30.55;17.00;;;;;;;;;;5007655;28;20187;-71
2021/09/11 04:23:17;;;;;;;19.15;15.10;;;;;;;;;;5010831;28;20300;-71
2021/09/11 04:25:43;;;;;;;23.00;17.40;;;;;;;;;;5008362;28;20183;-71
2021/09/11 04:28:08;;;;;;;29.20;17.27;;;;;;;;;;5010468;28;20179;-71
2021/09/11 04:30:33;;;;;;;20.50;16.33;;;;;;;;;;5008639;28;20175;-71
2021/09/11 04:32:59;;;;;;;23.27;16.25;;;;;;;;;;5003209;28;20209;-71
2021/09/11 04:35:24;;;;;;;22.58;17.13;;;;;;;;;;5015454;28;20186;-70
2021/09/11 04:37:49;;;;;;;24.30;16.38;;;;;;;;;;5004356;28;20191;-70
2021/09/11 04:40:14;;;;;;;23.60;15.55;;;;;;;;;;5010186;28;20645;-71
2021/09/11 04:42:39;;;;;;;21.30;15.63;;;;;;;;;;5017121;28;20201;-71
2021/09/11 04:45:05;;;;;;;25.02;15.75;;;;;;;;;;5018123;28;20202;-71
2021/09/11 04:47:30;;;;;;;25.95;16.10;;;;;;;;;;5019031;28;20267;-71
2021/09/11 04:49:55;;;;;;;23.48;15.70;;;;;;;;;;5014336;28;20333;-71
2021/09/11 04:52:20;;;;;;;18.60;13.85;;;;;;;;;;5017996;28;20233;-71
2021/09/11 04:54:46;;;;;;;29.30;15.02;;;;;;;;;;5013695;28;20199;-71
2021/09/11 04:57:11;;;;;;;18.63;14.93;;;;;;;;;;5018426;28;20686;-71
2021/09/11 04:59:36;;;;;;;21.75;14.98;;;;;;;;;;4994466;28;20190;-71
2021/09/11 05:02:01;;;;;;;21.25;15.32;;;;;;;;;;4997420;28;20639;-71
2021/09/11 05:04:26;;;;;;;20.98;15.57;;;;;;;;;;5012707;28;20612;-70
2021/09/11 05:06:52;;;;;;;22.30;15.03;;;;;;;;;;5010499;28;20176;-70
2021/09/11 05:09:17;;;;;;;23.50;16.00;;;;;;;;;;5012861;28;20416;-70
2021/09/11 05:11:42;;;;;;;20.52;15.23;;;;;;;;;;5013421;28;20201;-71
2021/09/11 05:14:07;;;;;;;27.05;16.33;;;;;;;;;;5013796;28;20175;-70
2021/09/11 05:16:33;;;;;;;21.30;14.68;;;;;;;;;;5013033;28;20175;-70
2021/09/11 05:18:58;;;;;;;22.48;15.93;;;;;;;;;;4996639;28;20553;-71
2021/09/11 05:21:23;;;;;;;20.80;15.93;;;;;;;;;;5009027;28;20209;-70
2021/09/11 05:23:48;;;;;;;22.10;15.93;;;;;;;;;;5012990;28;20448;-70
2021/09/11 05:26:14;;;;;;;26.63;17.20;;;;;;;;;;5004870;28;20194;-70
2021/09/11 05:28:39;;;;;;;23.55;16.73;;;;;;;;;;5014290;28;20648;-70
2021/09/11 05:31:04;;;;;;;19.30;15.10;;;;;;;;;;5006997;28;20209;-71
2021/09/11 05:33:29;;;;;;;24.58;17.80;;;;;;;;;;5014173;28;20284;-70
2021/09/11 05:35:54;;;;;;;22.88;15.95;;;;;;;;;;5009105;28;20197;-70
2021/09/11 05:38:19;;;;;;;21.38;16.58;;;;;;;;;;5012249;28;20183;-70
2021/09/11 05:40:45;;;;;;;24.17;16.23;;;;;;;;;;5012143;28;20277;-70
2021/09/11 05:43:10;;;;;;;21.23;16.35;;;;;;;;;;5008182;28;20451;-70
2021/09/11 05:45:35;;;;;;;23.05;15.38;;;;;;;;;;4993480;28;20266;-70
2021/09/11 05:48:00;;;;;;;20.20;14.85;;;;;;;;;;5012179;28;20198;-71
2021/09/11 05:50:25;;;;;;;20.23;14.43;;;;;;;;;;5012331;28;20222;-70
2021/09/11 05:52:51;;;;;;;22.48;14.35;;;;;;;;;;5013534;28;20486;-70
2021/09/11 05:55:16;;;;;;;24.47;14.33;;;;;;;;;;5013741;28;20167;-70
2021/09/11 05:57:41;;;;;;;22.07;13.70;;;;;;;;;;5019154;28;20415;-70
2021/09/11 06:00:06;;;;;;;16.52;14.13;;;;;;;;;;5014672;28;20937;-70
2021/09/11 06:02:32;;;;;;;20.45;15.05;;;;;;;;;;5000200;28;20211;-70
2021/09/11 06:04:57;;;;;;;21.60;17.00;;;;;;;;;;5012778;28;20203;-70
2021/09/11 06:07:22;;;;;;;20.57;15.67;;;;;;;;;;5011135;28;20940;-70
2021/09/11 06:09:47;;;;;;;21.48;16.02;;;;;;;;;;5011591;28;20425;-70
2021/09/11 06:12:12;;;;;;;21.88;15.38;;;;;;;;;;5017319;28;20209;-71
2021/09/11 06:14:38;;;;;;;20.57;15.67;;;;;;;;;;5019962;28;20226;-69
2021/09/11 06:17:03;;;;;;;21.85;14.02;;;;;;;;;;5012589;28;20825;-70
2021/09/11 06:19:29;;;;;;;17.48;13.77;;;;;;;;;;5015058;28;20189;-71
2021/09/11 06:21:54;;;;;;;18.57;13.07;;;;;;;;;;5022669;22;20241;-70
2021/09/11 06:24:19;;;;;;;19.35;12.65;;;;;;;;;;5006504;28;20460;-70
2021/09/11 06:26:44;;;;;;;19.53;12.13;;;;;;;;;;5011226;28;20555;-70
2021/09/11 06:29:09;;;;;;;18.42;13.90;;;;;;;;;;5011503;28;20477;-70
2021/09/11 06:31:34;;;;;;;17.10;12.83;;;;;;;;;;5009271;28;20218;-70
2021/09/11 06:34:00;;;;;;;19.30;13.47;;;;;;;;;;5012708;28;20424;-70
2021/09/11 06:36:25;;;;;;;24.30;15.07;;;;;;;;;;5010437;28;20428;-70
2021/09/11 06:38:50;;;;;;;15.63;12.93;;;;;;;;;;5010898;28;20659;-70
2021/09/11 06:41:15;;;;;;;25.33;15.00;;;;;;;;;;5010906;28;20478;-71
2021/09/11 06:43:40;;;;;;;23.93;15.63;;;;;;;;;;5004254;28;20894;-70
2021/09/11 06:46:05;;;;;;;18.03;13.80;;;;;;;;;;5010767;28;20431;-70
2021/09/11 06:48:30;;;;;;;18.93;12.93;;;;;;;;;;5011354;28;20745;-71
2021/09/11 06:50:56;;;;;;;19.40;12.93;;;;;;;;;;5010841;28;20455;-71
2021/09/11 06:53:21;;;;;;;17.27;12.95;;;;;;;;;;4992128;28;20441;-70
2021/09/11 06:55:46;;;;;;;21.70;12.60;;;;;;;;;;5006737;28;20430;-70
2021/09/11 06:58:11;;;;;;;17.00;11.90;;;;;;;;;;5007285;28;20187;-71
2021/09/11 07:00:36;;;;;;;20.17;12.93;;;;;;;;;;5005977;28;20183;-71
2021/09/11 07:03:02;;;;;;;19.65;12.60;;;;;;;;;;4992222;28;20574;-71
2021/09/11 07:05:27;;;;;;;19.90;11.50;;;;;;;;;;4997259;28;20251;-70
2021/09/11 07:07:52;;;;;;;14.70;11.53;;;;;;;;;;5010229;28;20561;-72
2021/09/11 07:10:17;;;;;;;16.75;11.13;;;;;;;;;;5009319;28;20428;-70
2021/09/11 07:12:42;;;;;;;15.30;11.87;;;;;;;;;;5002692;28;20267;-71
2021/09/11 07:15:08;;;;;;;14.80;11.60;;;;;;;;;;4998915;28;20796;-70
2021/09/11 07:17:33;;;;;;;17.02;10.93;;;;;;;;;;5001351;28;20432;-71
2021/09/11 07:19:58;;;;;;;15.13;11.57;;;;;;;;;;4999035;28;20190;-71
2021/09/11 07:22:24;;;;;;;14.63;10.87;;;;;;;;;;5003435;28;20210;-71
2021/09/11 07:24:49;;;;;;;13.48;11.00;;;;;;;;;;5000992;28;20867;-71
2021/09/11 07:27:17;;;;;;;16.92;10.50;;;;;;;;;;5000600;28;20626;-71
2021/09/11 07:29:42;;;;;;;15.32;9.80;;;;;;;;;;4980127;28;20199;-71
2021/09/11 07:32:07;;;;;;;16.73;11.73;;;;;;;;;;5003107;28;20317;-71
2021/09/11 07:34:32;;;;;;;14.38;10.25;;;;;;;;;;5009462;28;20408;-71
2021/09/11 07:36:58;;;;;;;15.13;10.90;;;;;;;;;;4999005;28;20210;-71
2021/09/11 07:39:23;;;;;;;14.07;10.40;;;;;;;;;;4997994;28;20211;-71
2021/09/11 07:41:48;;;;;;;16.40;10.97;;;;;;;;;;4998348;28;21206;-71
2021/09/11 07:44:13;;;;;;;12.88;10.68;;;;;;;;;;5000319;28;20471;-71
2021/09/11 07:46:39;;;;;;;14.73;10.90;;;;;;;;;;4993841;28;20280;-70
2021/09/11 07:49:04;;;;;;;13.82;11.02;;;;;;;;;;4996213;28;20838;-71
2021/09/11 07:51:29;;;;;;;13.40;11.38;;;;;;;;;;4984039;28;20298;-70
2021/09/11 07:53:54;;;;;;;13.23;11.17;;;;;;;;;;5001641;28;20218;-69
2021/09/11 07:56:19;;;;;;;16.42;10.18;;;;;;;;;;5007074;28;20424;-70
2021/09/11 07:58:45;;;;;;;19.65;10.70;;;;;;;;;;5007805;28;20178;-70
2021/09/11 08:01:10;;;;;;;16.40;11.57;;;;;;;;;;5003896;28;20183;-70
2021/09/11 08:03:36;;;;;;;16.20;10.65;;;;;;;;;;5006836;28;20703;-72
2021/09/11 08:06:07;;;;;;;18.42;10.82;;;;;;;;;;5008565;28;20317;-72
2021/09/11 08:08:32;;;;;;;15.45;11.13;;;;;;;;;;5007188;28;20453;-72
2021/09/11 08:10:57;;;;;;;16.00;11.47;;;;;;;;;;5001226;28;20630;-72
2021/09/11 08:13:23;;;;;;;16.53;11.30;;;;;;;;;;5000214;28;20456;-70
2021/09/11 08:15:48;;;;;;;15.83;10.90;;;;;;;;;;4999790;28;20503;-71
2021/09/11 08:18:13;;;;;;;15.73;12.23;;;;;;;;;;4998789;28;20432;-71
2021/09/11 08:20:41;;;;;;;15.88;11.65;;;;;;;;;;4985001;28;20183;-71
2021/09/11 08:23:06;;;;;;;14.07;10.93;;;;;;;;;;4998823;28;20538;-71
2021/09/11 08:25:32;;;;;;;18.10;11.27;;;;;;;;;;4999476;28;20225;-72
2021/09/11 08:27:57;;;;;;;20.27;12.38;;;;;;;;;;5004174;28;20942;-71
2021/09/11 08:30:22;;;;;;;15.07;10.88;;;;;;;;;;4998826;28;20194;-71
2021/09/11 08:32:47;;;;;;;17.80;11.93;;;;;;;;;;4997188;28;20207;-71
2021/09/11 08:35:13;;;;;;;19.30;12.50;;;;;;;;;;4999238;28;20215;-72
2021/09/11 08:37:39;;;;;;;17.48;11.85;;;;;;;;;;5011587;28;20408;-71
2021/09/11 08:40:04;;;;;;;16.20;11.82;;;;;;;;;;5004249;28;20719;-71
2021/09/11 08:42:29;;;;;;;19.48;13.25;;;;;;;;;;5009122;28;21672;-71
2021/09/11 08:44:55;;;;;;;18.75;12.32;;;;;;;;;;5010105;28;20609;-71
2021/09/11 08:47:20;;;;;;;16.95;11.95;;;;;;;;;;5010025;28;20179;-71
2021/09/11 08:49:45;;;;;;;18.45;12.88;;;;;;;;;;5006008;28;20572;-71
2021/09/11 08:52:12;;;;;;;14.13;11.40;;;;;;;;;;5010922;28;20195;-71
2021/09/11 08:54:38;;;;;;;16.10;12.35;;;;;;;;;;5007318;28;20447;-71
2021/09/11 08:57:18;;;;;;;18.58;13.07;;;;;;;;;;5009284;28;20191;-70
2021/09/11 08:59:44;;;;;;;17.38;12.55;;;;;;;;;;4972483;28;20190;-71
2021/09/11 09:02:09;;;;;;;19.93;14.13;;;;;;;;;;4990748;28;20207;-71
2021/09/11 09:04:51;;;;;;;17.92;13.48;;;;;;;;;;4991385;28;20456;-71
2021/09/11 09:07:35;;;;;;;15.48;12.32;;;;;;;;;;4989379;28;20182;-71
2021/09/11 09:10:08;;;;;;;18.15;13.13;;;;;;;;;;4992694;28;20179;-71
2021/09/11 09:12:35;;;;;;;23.25;14.27;;;;;;;;;;4991675;28;20202;-71
2021/09/11 09:15:01;;;;;;;18.40;14.20;;;;;;;;;;4989923;28;20668;-71
2021/09/11 09:17:46;;;;;;;18.30;14.15;;;;;;;;;;4999074;28;20266;-71
2021/09/11 09:20:12;;;;;;;18.52;13.98;;;;;;;;;;4999150;28;20182;-71
2021/09/11 09:22:37;;;;;;;20.15;13.45;;;;;;;;;;4998843;28;20273;-71
2021/09/11 09:25:03;;;;;;;19.20;15.02;;;;;;;;;;5000515;28;20294;-71
2021/09/11 09:27:28;;;;;;;20.63;14.65;;;;;;;;;;5000775;28;20589;-71
2021/09/11 09:29:59;;;;;;;16.00;13.63;;;;;;;;;;4999953;28;20572;-71
2021/09/11 09:32:34;;;;;;;23.27;13.77;;;;;;;;;;5011848;28;20459;-70
2021/09/11 09:34:59;;;;;;;17.85;13.15;;;;;;;;;;5007246;28;20204;-70
2021/09/11 09:37:24;;;;;;;20.25;13.38;;;;;;;;;;4994445;28;20692;-70
2021/09/11 09:39:50;;;;;;;17.97;13.30;;;;;;;;;;4999572;28;20175;-71
2021/09/11 09:42:16;;;;;;;17.90;12.70;;;;;;;;;;5000194;28;20511;-70
2021/09/11 09:44:43;;;;;;;20.15;12.55;;;;;;;;;;4999108;28;20281;-70
2021/09/11 09:47:12;;;;;;;15.27;11.40;;;;;;;;;;5001570;28;20198;-70
2021/09/11 09:49:37;;;;;;;15.02;12.02;;;;;;;;;;4996628;28;20226;-71
2021/09/11 09:52:03;;;;;;;17.20;11.30;;;;;;;;;;4999973;28;20246;-70
2021/09/11 09:54:28;;;;;;;16.73;12.18;;;;;;;;;;5002639;28;20448;-70
2021/09/11 09:56:54;;;;;;;14.73;10.95;;;;;;;;;;4987837;28;20190;-70
2021/09/11 09:59:19;;;;;;;18.45;11.40;;;;;;;;;;5004495;28;20317;-70
2021/09/11 10:01:49;;;;;;;12.85;10.63;;;;;;;;;;5000861;28;20211;-71
2021/09/11 10:04:15;;;;;;;14.05;9.68;;;;;;;;;;4997235;28;20210;-70
2021/09/11 10:06:42;;;;;;;15.70;11.02;;;;;;;;;;4999313;28;20194;-70
2021/09/11 10:09:07;;;;;;;14.50;10.80;;;;;;;;;;4996629;28;20171;-71
2021/09/11 10:11:37;;;;;;;11.95;9.95;;;;;;;;;;4996738;28;20191;-73
2021/09/11 10:14:04;;;;;;;12.15;10.80;;;;;;;;;;4998088;28;20285;-70
2021/09/11 10:16:31;;;;;;;14.50;10.40;;;;;;;;;;5000721;28;20233;-70
2021/09/11 10:18:56;;;;;;;22.63;10.10;;;;;;;;;;4999264;28;20183;-70
2021/09/11 10:21:35;;;;;;;14.73;10.87;;;;;;;;;;4985441;28;20193;-70
2021/09/11 10:24:00;;;;;;;12.48;10.05;;;;;;;;;;4996664;28;20505;-70
2021/09/11 10:26:42;;;;;;;15.10;10.50;;;;;;;;;;4996107;28;20195;-71
2021/09/11 10:29:26;;;;;;;10.13;8.57;;;;;;;;;;4998773;28;20186;-71
2021/09/11 10:31:55;;;;;;;11.30;8.90;;;;;;;;;;4998278;28;20245;-72
2021/09/11 10:34:40;;;;;;;9.50;8.50;;;;;;;;;;5005992;28;20187;-70
2021/09/11 10:37:05;;;;;;;10.10;8.90;;;;;;;;;;5002911;28;20183;-71
2021/09/11 10:39:32;;;;;;;11.60;8.85;;;;;;;;;;4997897;28;20580;-70
2021/09/11 10:42:07;;;;;;;11.27;8.88;;;;;;;;;;4997281;28;20245;-70
2021/09/11 10:44:32;;;;;;;10.75;8.48;;;;;;;;;;4981814;28;20290;-70
2021/09/11 10:46:57;;;;;;;11.13;9.20;;;;;;;;;;4998046;28;20269;-70
2021/09/11 10:49:26;;;;;;;10.02;9.05;;;;;;;;;;4998372;28;20201;-70
2021/09/11 10:52:02;;;;;;;9.48;8.45;;;;;;;;;;4995069;28;20214;-70
2021/09/11 10:54:30;;;;;;;9.00;8.07;;;;;;;;;;4997081;28;20270;-70
2021/09/11 10:56:58;;;;;;;12.35;8.80;;;;;;;;;;4994237;28;20183;-69
2021/09/11 10:59:23;;;;;;;9.50;8.43;;;;;;;;;;4994359;28;20248;-70
2021/09/11 11:02:05;;;;;;;9.88;8.20;;;;;;;;;;4995220;28;20207;-70
2021/09/11 11:04:32;;;;;;;10.68;7.78;;;;;;;;;;4995797;28;20213;-71
2021/09/11 11:06:58;;;;;;;9.25;8.15;;;;;;;;;;5000606;28;20727;-71
2021/09/11 11:09:24;;;;;;;11.52;9.18;;;;;;;;;;4995534;28;20191;-70
2021/09/11 11:11:50;;;;;;;8.82;8.02;;;;;;;;;;4995600;28;20198;-71
2021/09/11 11:14:15;;;;;;;10.30;9.23;;;;;;;;;;4997421;28;20178;-69
2021/09/11 11:16:58;;;;;;;9.70;8.57;;;;;;;;;;4996594;28;20179;-70
2021/09/11 11:19:25;;;;;;;8.77;7.85;;;;;;;;;;4995709;28;20191;-70
2021/09/11 11:21:53;;;;;;;11.15;8.27;;;;;;;;;;4979897;28;20211;-70
2021/09/11 11:24:18;;;;;;;9.65;8.68;;;;;;;;;;4996534;28;20203;-70
2021/09/11 11:26:43;;;;;;;8.82;7.82;;;;;;;;;;4996493;28;20251;-70
2021/09/11 11:29:10;;;;;;;9.18;7.82;;;;;;;;;;4991879;28;20902;-70
2021/09/11 11:31:42;;;;;;;7.93;7.05;;;;;;;;;;4991382;28;20665;-70
2021/09/11 11:34:07;;;;;;;8.07;7.05;;;;;;;;;;4978626;28;20183;-70
2021/09/11 11:36:32;;;;;;;7.35;6.65;;;;;;;;;;4993951;28;20187;-69
2021/09/11 11:39:16;;;;;;;7.80;7.07;;;;;;;;;;4993239;28;20183;-70
2021/09/11 11:41:41;;;;;;;7.05;6.35;;;;;;;;;;4995243;28;20809;-69
2021/09/11 11:44:06;;;;;;;7.47;6.67;;;;;;;;;;4990401;28;20205;-70
2021/09/11 11:46:33;;;;;;;7.85;6.70;;;;;;;;;;4996672;28;20433;-70
2021/09/11 11:48:58;;;;;;;7.25;6.55;;;;;;;;;;4994729;28;20238;-70
2021/09/11 11:51:23;;;;;;;7.60;6.20;;;;;;;;;;4995379;28;20665;-70
2021/09/11 11:53:48;;;;;;;7.50;6.70;;;;;;;;;;4997936;28;20439;-71
2021/09/11 11:56:14;;;;;;;9.57;6.45;;;;;;;;;;4997800;28;20429;-70
2021/09/11 11:58:39;;;;;;;7.17;6.43;;;;;;;;;;4996239;28;20703;-70
2021/09/11 12:01:04;;;;;;;6.60;5.35;;;;;;;;;;4997665;28;20432;-70
2021/09/11 12:03:43;;;;;;;7.07;6.00;;;;;;;;;;4995366;28;20297;-70
2021/09/11 12:06:10;;;;;;;7.10;6.47;;;;;;;;;;4997721;28;20413;-69
2021/09/11 12:08:36;;;;;;;7.15;6.45;;;;;;;;;;4998340;28;20179;-69
2021/09/11 12:11:03;;;;;;;8.52;6.57;;;;;;;;;;4977669;28;20183;-69
2021/09/11 12:13:28;;;;;;;8.48;7.57;;;;;;;;;;4997566;28;20611;-70
2021/09/11 12:15:54;;;;;;;8.63;7.70;;;;;;;;;;4997714;28;20175;-70
2021/09/11 12:18:19;;;;;;;8.63;7.43;;;;;;;;;;4995405;28;20179;-70
2021/09/11 12:20:54;;;;;;;7.67;6.13;;;;;;;;;;4999700;28;20209;-73
2021/09/11 12:23:40;;;;;;;4.63;4.22;;;;;;;;;;4998865;28;20467;-69
2021/09/11 12:26:12;;;;;;;5.13;4.72;;;;;;;;;;4996293;28;20546;-70
2021/09/11 12:28:37;;;;;;;5.45;4.40;;;;;;;;;;4992873;28;20334;-70
2021/09/11 12:31:03;;;;;;;4.45;4.05;;;;;;;;;;4978787;28;20266;-69
2021/09/11 12:33:28;;;;;;;5.57;4.80;;;;;;;;;;4994858;28;20198;-70
2021/09/11 12:35:53;;;;;;;6.45;5.05;;;;;;;;;;4995995;28;20685;-70
2021/09/11 12:38:19;;;;;;;6.53;5.88;;;;;;;;;;4993875;28;20194;-70
2021/09/11 12:40:44;;;;;;;6.57;5.53;;;;;;;;;;4997830;28;20187;-70
2021/09/11 12:43:10;;;;;;;6.80;5.18;;;;;;;;;;4984885;28;20487;-70
2021/09/11 12:45:37;;;;;;;7.40;5.97;;;;;;;;;;4995662;28;20211;-69
2021/09/11 12:48:04;;;;;;;6.70;5.40;;;;;;;;;;4980766;28;20175;-71
2021/09/11 12:50:29;;;;;;;6.97;5.85;;;;;;;;;;4978751;28;20187;-71
2021/09/11 12:52:54;;;;;;;9.90;6.43;;;;;;;;;;4993217;28;20689;-70
2021/09/11 12:55:19;;;;;;;8.50;6.00;;;;;;;;;;4998135;28;20467;-71
2021/09/11 12:57:44;;;;;;;6.97;5.20;;;;;;;;;;4998340;28;20436;-71
2021/09/11 13:00:10;;;;;;;7.07;5.60;;;;;;;;;;5000902;28;22030;-70
2021/09/11 13:02:35;;;;;;;4.97;4.47;;;;;;;;;;4978828;28;20448;-70
2021/09/11 13:05:00;;;;;;;7.15;5.07;;;;;;;;;;4999651;28;20691;-71
2021/09/11 13:07:26;;;;;;;6.70;5.30;;;;;;;;;;4998380;28;20306;-71
2021/09/11 13:09:51;;;;;;;5.77;5.10;;;;;;;;;;5003635;28;20178;-72
2021/09/11 13:12:18;;;;;;;5.50;5.00;;;;;;;;;;4983612;28;20586;-70
2021/09/11 13:14:44;;;;;;;6.55;5.07;;;;;;;;;;5000050;28;20432;-70
2021/09/11 13:17:09;;;;;;;5.65;4.68;;;;;;;;;;4983813;28;20175;-70
2021/09/11 13:19:36;;;;;;;5.30;4.77;;;;;;;;;;4984785;28;20678;-70
2021/09/11 13:22:02;;;;;;;4.68;4.25;;;;;;;;;;4985246;28;20495;-69
2021/09/11 13:24:27;;;;;;;5.63;4.65;;;;;;;;;;4998044;28;20246;-69
2021/09/11 13:26:52;;;;;;;4.77;4.00;;;;;;;;;;5001288;28;20182;-69
2021/09/11 13:29:17;;;;;;;5.32;4.60;;;;;;;;;;5000103;28;20420;-70
2021/09/11 13:31:42;;;;;;;5.47;3.93;;;;;;;;;;5000708;28;20195;-69
2021/09/11 13:34:08;;;;;;;6.67;4.70;;;;;;;;;;4999732;28;20800;-68
2021/09/11 13:36:33;;;;;;;5.13;4.20;;;;;;;;;;4999647;28;20427;-69
2021/09/11 13:38:58;;;;;;;5.78;4.22;;;;;;;;;;4992788;28;20186;-69
2021/09/11 13:41:24;;;;;;;4.63;4.22;;;;;;;;;;5001931;28;20179;-69
2021/09/11 13:43:49;;;;;;;3.35;3.05;;;;;;;;;;5004913;28;20643;-69
2021/09/11 13:46:15;;;;;;;3.63;3.33;;;;;;;;;;4999540;28;20245;-69
2021/09/11 13:48:40;;;;;;;3.95;3.22;;;;;;;;;;4998076;28;20179;-69
2021/09/11 13:51:06;;;;;;;4.22;3.35;;;;;;;;;;4996171;28;20186;-68
2021/09/11 13:53:31;;;;;;;3.15;2.95;;;;;;;;;;4995135;28;20677;-68
2021/09/11 13:55:56;;;;;;;3.63;3.00;;;;;;;;;;4999156;28;20182;-69
2021/09/11 13:58:21;;;;;;;4.70;3.47;;;;;;;;;;4998204;28;20186;-69
2021/09/11 14:00:47;;;;;;;4.03;3.53;;;;;;;;;;5001442;28;20460;-69
2021/09/11 14:03:12;;;;;;;4.15;3.83;;;;;;;;;;4999339;28;20317;-70
2021/09/11 14:05:38;;;;;;;4.10;3.63;;;;;;;;;;5001200;28;20174;-69
2021/09/11 14:08:04;;;;;;;4.78;4.38;;;;;;;;;;4997932;28;20175;-69
2021/09/11 14:10:29;;;;;;;5.18;4.68;;;;;;;;;;4998875;28;20183;-69
2021/09/11 14:12:54;;;;;;;8.07;5.50;;;;;;;;;;4999235;28;20245;-68
2021/09/11 14:15:20;;;;;;;7.70;6.90;;;;;;;;;;4998250;28;20199;-67
2021/09/11 14:17:48;;;;;;;11.25;7.38;;;;;;;;;;4999158;28;20478;-67